createdAt,value
2023-01-29T00:00:12.747Z,102103.47
2023-01-29T00:02:40.756Z,102092.03
2023-01-29T00:05:26.131Z,102093.88
2023-01-29T00:07:54.586Z,102096.75
2023-01-29T00:10:23.695Z,102099.09
2023-01-29T00:12:51.666Z,102092.88
2023-01-29T00:15:20.630Z,102097.09
2023-01-29T00:17:48.304Z,102096.91
2023-01-29T00:20:16.657Z,102091.03
2023-01-29T00:22:44.504Z,102089.00
2023-01-29T00:25:12.551Z,102098.75
2023-01-29T00:27:41.553Z,102094.91
2023-01-29T00:30:13.145Z,102093.88
2023-01-29T00:32:41.105Z,102090.19
2023-01-29T00:35:10.187Z,102087.66
2023-01-29T00:37:38.450Z,102079.72
2023-01-29T00:40:07.536Z,102073.34
2023-01-29T00:42:52.717Z,102068.63
2023-01-29T00:45:21.896Z,102069.97
2023-01-29T00:47:49.641Z,102060.22
2023-01-29T00:50:17.748Z,102064.94
2023-01-29T00:52:45.850Z,102064.91
2023-01-29T00:55:13.736Z,102059.69
2023-01-29T00:57:41.376Z,102057.47
2023-01-29T01:00:12.089Z,102054.44
2023-01-29T01:02:59.037Z,102059.69
2023-01-29T01:05:26.788Z,102063.91
2023-01-29T01:07:58.219Z,102063.72
2023-01-29T01:10:27.188Z,102060.88
2023-01-29T01:12:56.721Z,102065.59
2023-01-29T01:15:25.697Z,102060.03
2023-01-29T01:17:55.820Z,102067.75
2023-01-29T01:20:23.897Z,102063.88
2023-01-29T01:22:51.594Z,102065.22
2023-01-29T01:25:19.427Z,102067.75
2023-01-29T01:27:47.175Z,102066.59
2023-01-29T01:30:17.664Z,102058.16
2023-01-29T01:32:45.742Z,102058.19
2023-01-29T01:35:14.892Z,102060.19
2023-01-29T01:37:42.771Z,102052.75
2023-01-29T01:40:18.241Z,102054.25
2023-01-29T01:42:48.273Z,102051.22
2023-01-29T01:45:20.905Z,102055.63
2023-01-29T01:47:53.443Z,102057.66
2023-01-29T01:50:27.909Z,102057.31
2023-01-29T01:53:00.918Z,102062.34
2023-01-29T01:55:31.183Z,102056.97
2023-01-29T01:58:10.146Z,102051.75
2023-01-29T02:00:38.130Z,102064.22
2023-01-29T02:03:24.827Z,102049.06
2023-01-29T02:06:12.820Z,102041.16
2023-01-29T02:09:05.638Z,102034.38
2023-01-29T02:11:33.310Z,102036.59
2023-01-29T02:14:01.026Z,102027.00
2023-01-29T02:16:28.818Z,102026.63
2023-01-29T02:18:57.020Z,102027.19
2023-01-29T02:21:51.608Z,102028.66
2023-01-29T02:24:42.971Z,102036.06
2023-01-29T02:27:15.017Z,102021.78
2023-01-29T02:29:56.136Z,102022.41
2023-01-29T02:32:31.590Z,102016.38
2023-01-29T02:35:28.600Z,102014.84
2023-01-29T02:38:02.784Z,102015.53
2023-01-29T02:40:35.468Z,102016.03
2023-01-29T02:43:14.181Z,102016.41
2023-01-29T02:45:48.585Z,102009.84
2023-01-29T02:48:20.630Z,102017.41
2023-01-29T02:50:55.850Z,102019.56
2023-01-29T02:53:28.555Z,102016.59
2023-01-29T02:56:00.979Z,102010.47
2023-01-29T02:58:34.114Z,102006.28
2023-01-29T03:01:08.837Z,101996.69
2023-01-29T03:03:41.640Z,102006.63
2023-01-29T03:06:20.620Z,101999.53
2023-01-29T03:08:54.317Z,102008.63
2023-01-29T03:11:22.474Z,102002.38
2023-01-29T03:13:54.397Z,102009.28
2023-01-29T03:16:32.183Z,101990.28
2023-01-29T03:22:32.767Z,101988.25
2023-01-29T03:25:20.674Z,101980.00
2023-01-29T03:28:10.889Z,101987.38
2023-01-29T03:31:01.706Z,101981.63
2023-01-29T03:33:33.614Z,101979.28
2023-01-29T03:36:06.596Z,101979.94
2023-01-29T03:38:34.382Z,101968.97
2023-01-29T03:41:09.244Z,101962.06
2023-01-29T03:43:46.192Z,101963.94
2023-01-29T03:46:28.982Z,101956.84
2023-01-29T03:49:04.115Z,101955.84
2023-01-29T03:51:38.506Z,101947.59
2023-01-29T03:54:14.445Z,101947.59
2023-01-29T03:56:55.005Z,101950.66
2023-01-29T03:59:34.665Z,101927.56
2023-01-29T04:02:06.649Z,101926.09
2023-01-29T04:04:38.354Z,101920.16
2023-01-29T04:07:11.787Z,101918.16
2023-01-29T04:09:46.809Z,101914.09
2023-01-29T04:12:19.651Z,101903.19
2023-01-29T04:14:50.553Z,101905.00
2023-01-29T04:17:23.856Z,101898.28
2023-01-29T04:19:54.604Z,101891.22
2023-01-29T04:22:29.136Z,101890.41
2023-01-29T04:25:02.352Z,101888.00
2023-01-29T04:27:44.177Z,101878.41
2023-01-29T04:30:23.849Z,101887.69
2023-01-29T04:33:03.957Z,101875.78
2023-01-29T04:35:45.021Z,101873.88
2023-01-29T04:38:18.641Z,101876.19
2023-01-29T04:40:55.335Z,101862.78
2023-01-29T04:43:29.217Z,101873.66
2023-01-29T04:46:10.439Z,101865.56
2023-01-29T04:48:50.535Z,101870.59
2023-01-29T04:51:25.953Z,101871.31
2023-01-29T04:54:00.942Z,101872.19
2023-01-29T04:56:37.076Z,101870.66
2023-01-29T04:59:08.641Z,101863.53
2023-01-29T05:01:38.958Z,101870.44
2023-01-29T05:04:09.980Z,101862.88
2023-01-29T05:06:40.207Z,101861.09
2023-01-29T05:09:09.402Z,101866.78
2023-01-29T05:11:38.063Z,101872.84
2023-01-29T05:14:08.746Z,101876.13
2023-01-29T05:16:42.855Z,101863.69
2023-01-29T05:19:11.740Z,101865.06
2023-01-29T05:21:44.334Z,101863.38
2023-01-29T05:24:14.975Z,101865.94
2023-01-29T05:27:01.092Z,101864.91
2023-01-29T05:29:28.824Z,101860.84
2023-01-29T05:31:56.563Z,101858.56
2023-01-29T05:34:24.335Z,101862.53
2023-01-29T05:36:53.520Z,101868.47
2023-01-29T05:39:21.207Z,101863.03
2023-01-29T05:41:49.833Z,101863.75
2023-01-29T05:44:17.601Z,101860.19
2023-01-29T05:46:46.089Z,101847.94
2023-01-29T05:49:13.854Z,101864.13
2023-01-29T05:51:41.519Z,101863.22
2023-01-29T05:54:12.800Z,101855.00
2023-01-29T05:56:40.605Z,101859.00
2023-01-29T05:59:08.350Z,101876.00
2023-01-29T06:01:35.976Z,101875.22
2023-01-29T06:04:03.748Z,101873.81
2023-01-29T06:06:31.462Z,101872.69
2023-01-29T06:08:59.143Z,101879.97
2023-01-29T06:11:28.240Z,101889.00
2023-01-29T06:13:55.924Z,101883.78
2023-01-29T06:16:23.636Z,101883.31
2023-01-29T06:18:51.269Z,101878.59
2023-01-29T06:21:20.134Z,101884.44
2023-01-29T06:23:47.985Z,101887.13
2023-01-29T06:26:16.778Z,101888.81
2023-01-29T06:28:46.090Z,101883.25
2023-01-29T06:31:36.979Z,101877.56
2023-01-29T06:34:01.576Z,101866.44
2023-01-29T06:36:29.225Z,101864.63
2023-01-29T06:38:57.021Z,101878.00
2023-01-29T06:41:25.528Z,101861.97
2023-01-29T06:43:54.726Z,101874.44
2023-01-29T06:46:22.578Z,101867.97
2023-01-29T06:48:50.317Z,101872.31
2023-01-29T06:51:18.130Z,101865.91
2023-01-29T06:53:46.723Z,101873.31
2023-01-29T06:56:14.714Z,101889.47
2023-01-29T06:58:43.463Z,101885.81
2023-01-29T07:01:25.503Z,101893.47
2023-01-29T07:04:00.884Z,101890.63
2023-01-29T07:06:29.389Z,101883.31
2023-01-29T07:08:57.626Z,101878.41
2023-01-29T07:11:25.400Z,101874.53
2023-01-29T07:13:53.145Z,101873.28
2023-01-29T07:16:22.239Z,101871.09
2023-01-29T07:18:50.022Z,101867.66
2023-01-29T07:21:17.728Z,101860.63
2023-01-29T07:23:45.458Z,101854.28
2023-01-29T07:26:13.164Z,101864.84
2023-01-29T07:28:41.814Z,101867.69
2023-01-29T07:31:12.655Z,101884.22
2023-01-29T07:33:41.943Z,101876.59
2023-01-29T07:36:10.336Z,101872.75
2023-01-29T07:38:38.013Z,101877.78
2023-01-29T07:41:05.974Z,101864.41
2023-01-29T07:43:33.747Z,101848.06
2023-01-29T07:46:03.302Z,101868.72
2023-01-29T07:48:31.082Z,101855.88
2023-01-29T07:51:00.329Z,101842.19
2023-01-29T07:53:29.040Z,101830.44
2023-01-29T07:55:57.019Z,101833.75
2023-01-29T07:58:24.818Z,101828.38
2023-01-29T08:00:52.553Z,101836.09
2023-01-29T08:03:21.039Z,101838.59
2023-01-29T08:05:49.477Z,101839.97
2023-01-29T08:08:19.284Z,101840.56
2023-01-29T08:10:46.956Z,101823.28
2023-01-29T08:13:14.702Z,101828.06
2023-01-29T08:15:45.174Z,101832.31
2023-01-29T08:18:13.296Z,101833.47
2023-01-29T08:20:41.197Z,101840.25
2023-01-29T08:23:13.591Z,101834.47
2023-01-29T08:25:43.174Z,101825.38
2023-01-29T08:28:11.770Z,101824.47
2023-01-29T08:30:39.889Z,101832.91
2023-01-29T08:33:07.734Z,101832.47
2023-01-29T08:35:35.355Z,101826.19
2023-01-29T08:38:04.402Z,101818.47
2023-01-29T08:40:33.611Z,101818.13
2023-01-29T08:43:06.121Z,101817.97
2023-01-29T08:45:37.153Z,101818.50
2023-01-29T08:48:05.382Z,101828.09
2023-01-29T08:50:34.808Z,101829.13
2023-01-29T08:53:03.428Z,101824.56
2023-01-29T08:55:31.417Z,101823.53
2023-01-29T08:57:59.084Z,101826.19
2023-01-29T09:00:28.125Z,101814.38
2023-01-29T09:02:55.787Z,101811.47
2023-01-29T09:05:23.456Z,101808.44
2023-01-29T09:07:52.676Z,101814.53
2023-01-29T09:10:21.322Z,101811.28
2023-01-29T09:12:49.383Z,101801.03
2023-01-29T09:15:17.463Z,101807.03
2023-01-29T09:17:46.763Z,101805.78
2023-01-29T09:20:14.387Z,101792.13
2023-01-29T09:22:42.233Z,101808.19
2023-01-29T09:25:10.695Z,101808.72
2023-01-29T09:27:38.531Z,101818.00
2023-01-29T09:30:07.993Z,101813.84
2023-01-29T09:35:25.199Z,101814.28
2023-01-29T09:37:53.018Z,101804.34
2023-01-29T09:40:27.594Z,101797.44
2023-01-29T09:43:02.430Z,101791.41
2023-01-29T09:45:31.521Z,101789.84
2023-01-29T09:48:01.767Z,101790.31
2023-01-29T09:50:36.135Z,101786.38
2023-01-29T09:53:12.420Z,101780.34
2023-01-29T09:55:46.669Z,101777.25
2023-01-29T09:58:22.031Z,101769.09
2023-01-29T10:00:59.413Z,101768.63
2023-01-29T10:03:46.104Z,101771.41
2023-01-29T10:06:26.261Z,101767.13
2023-01-29T10:09:34.256Z,101767.31
2023-01-29T10:12:16.417Z,101763.84
2023-01-29T10:14:54.433Z,101752.03
2023-01-29T10:17:40.035Z,101747.84
2023-01-29T10:20:28.301Z,101741.22
2023-01-29T10:23:10.208Z,101741.41
2023-01-29T10:25:42.025Z,101746.53
2023-01-29T10:28:18.511Z,101750.16
2023-01-29T10:30:50.078Z,101760.47
2023-01-29T10:33:23.091Z,101757.31
2023-01-29T10:35:56.891Z,101757.75
2023-01-29T10:38:36.154Z,101749.31
2023-01-29T10:41:18.999Z,101753.38
2023-01-29T10:43:59.182Z,101744.25
2023-01-29T10:46:39.223Z,101743.16
2023-01-29T10:49:21.157Z,101734.19
2023-01-29T10:52:04.562Z,101728.38
2023-01-29T10:54:48.767Z,101737.75
2023-01-29T10:57:27.009Z,101721.78
2023-01-29T11:00:07.243Z,101721.78
2023-01-29T11:02:35.078Z,101713.63
2023-01-29T11:05:02.989Z,101712.41
2023-01-29T11:07:31.968Z,101706.34
2023-01-29T11:10:08.839Z,101699.44
2023-01-29T11:12:39.054Z,101696.91
2023-01-29T11:15:15.696Z,101694.03
2023-01-29T11:18:02.590Z,101698.78
2023-01-29T11:20:32.830Z,101699.09
2023-01-29T11:23:00.549Z,101695.59
2023-01-29T11:25:32.521Z,101691.84
2023-01-29T11:28:01.933Z,101682.13
2023-01-29T11:30:32.151Z,101684.25
2023-01-29T11:33:08.842Z,101678.84
2023-01-29T11:35:37.579Z,101676.78
2023-01-29T11:38:18.482Z,101671.59
2023-01-29T11:40:47.796Z,101663.13
2023-01-29T11:43:24.133Z,101661.88
2023-01-29T11:45:53.713Z,101663.56
2023-01-29T11:48:23.159Z,101664.44
2023-01-29T11:50:56.572Z,101659.41
2023-01-29T11:53:34.998Z,101667.56
2023-01-29T11:56:16.825Z,101655.28
2023-01-29T11:58:46.372Z,101660.50
2023-01-29T12:01:16.752Z,101651.59
2023-01-29T12:03:49.020Z,101656.56
2023-01-29T12:06:21.561Z,101646.19
2023-01-29T12:08:56.985Z,101645.91
2023-01-29T12:11:31.592Z,101641.91
2023-01-29T12:14:01.115Z,101627.19
2023-01-29T12:16:33.087Z,101629.50
2023-01-29T12:19:11.504Z,101621.59
2023-01-29T12:21:47.899Z,101616.81
2023-01-29T12:24:30.759Z,101621.44
2023-01-29T12:27:08.444Z,101622.44
2023-01-29T12:29:46.044Z,101618.50
2023-01-29T12:32:28.865Z,101610.59
2023-01-29T12:35:02.824Z,101617.69
2023-01-29T12:37:39.818Z,101601.19
2023-01-29T12:40:13.900Z,101590.81
2023-01-29T12:42:47.228Z,101594.16
2023-01-29T12:45:19.100Z,101597.09
2023-01-29T12:47:51.317Z,101585.81
2023-01-29T12:50:23.088Z,101578.50
2023-01-29T12:52:55.009Z,101577.06
2023-01-29T12:55:26.393Z,101597.06
2023-01-29T12:57:59.618Z,101580.19
2023-01-29T13:00:30.324Z,101597.72
2023-01-29T13:03:05.096Z,101593.94
2023-01-29T13:05:40.453Z,101602.06
2023-01-29T13:08:15.487Z,101603.09
2023-01-29T13:10:47.864Z,101597.06
2023-01-29T13:13:23.073Z,101586.84
2023-01-29T13:15:50.916Z,101584.13
2023-01-29T13:18:34.081Z,101577.69
2023-01-29T13:21:02.287Z,101573.69
2023-01-29T13:23:35.707Z,101575.59
2023-01-29T13:26:03.746Z,101572.06
2023-01-29T13:28:33.526Z,101560.00
2023-01-29T13:31:14.309Z,101553.06
2023-01-29T13:33:44.273Z,101551.25
2023-01-29T13:36:17.781Z,101557.28
2023-01-29T13:38:46.016Z,101560.81
2023-01-29T13:41:15.774Z,101554.59
2023-01-29T13:43:50.907Z,101556.44
2023-01-29T13:46:21.297Z,101560.19
2023-01-29T13:48:51.573Z,101565.81
2023-01-29T13:51:22.805Z,101557.69
2023-01-29T13:53:57.232Z,101563.34
2023-01-29T13:56:45.384Z,101564.16
2023-01-29T13:59:25.908Z,101553.94
2023-01-29T14:02:04.410Z,101547.25
2023-01-29T14:04:34.111Z,101541.59
2023-01-29T14:07:04.081Z,101528.91
2023-01-29T14:10:14.120Z,101531.81
2023-01-29T14:12:46.915Z,101536.16
2023-01-29T14:15:25.351Z,101529.09
2023-01-29T14:18:05.666Z,101523.88
2023-01-29T14:20:45.471Z,101523.69
2023-01-29T14:23:22.531Z,101521.59
2023-01-29T14:25:50.489Z,101519.72
2023-01-29T14:28:23.775Z,101514.94
2023-01-29T14:30:53.684Z,101518.22
2023-01-29T14:33:33.834Z,101508.63
2023-01-29T14:36:06.531Z,101505.09
2023-01-29T14:38:35.216Z,101509.66
2023-01-29T14:41:14.861Z,101504.44
2023-01-29T14:43:42.737Z,101498.56
2023-01-29T14:46:46.283Z,101492.94
2023-01-29T14:49:35.594Z,101497.53
2023-01-29T14:52:03.827Z,101487.38
2023-01-29T14:54:34.013Z,101480.88
2023-01-29T14:57:07.207Z,101472.78
2023-01-29T14:59:38.893Z,101476.66
2023-01-29T15:02:18.267Z,101469.81
2023-01-29T15:04:50.708Z,101474.81
2023-01-29T15:07:29.290Z,101478.56
2023-01-29T15:10:21.475Z,101472.75
2023-01-29T15:12:53.805Z,101461.81
2023-01-29T15:15:32.308Z,101453.28
2023-01-29T15:18:06.377Z,101456.22
2023-01-29T15:20:36.384Z,101455.78
2023-01-29T15:23:06.072Z,101454.53
2023-01-29T15:25:37.766Z,101451.59
2023-01-29T15:28:10.132Z,101441.00
2023-01-29T15:30:38.982Z,101435.34
2023-01-29T15:33:11.610Z,101426.44
2023-01-29T15:35:41.479Z,101427.06
2023-01-29T15:38:17.630Z,101422.06
2023-01-29T15:40:53.791Z,101431.63
2023-01-29T15:43:23.790Z,101427.88
2023-01-29T15:45:52.752Z,101416.25
2023-01-29T15:48:29.232Z,101425.81
2023-01-29T15:50:58.297Z,101423.28
2023-01-29T15:53:32.090Z,101417.44
2023-01-29T15:56:00.170Z,101410.72
2023-01-29T15:58:32.460Z,101409.34
2023-01-29T16:01:01.906Z,101402.69
2023-01-29T16:03:33.738Z,101409.13
2023-01-29T16:06:02.867Z,101402.25
2023-01-29T16:08:30.648Z,101405.81
2023-01-29T16:11:01.684Z,101401.44
2023-01-29T16:13:31.802Z,101405.16
2023-01-29T16:16:01.572Z,101396.81
2023-01-29T16:18:35.331Z,101404.34
2023-01-29T16:21:08.749Z,101395.56
2023-01-29T16:23:41.722Z,101394.13
2023-01-29T16:26:13.927Z,101396.44
2023-01-29T16:28:42.369Z,101393.31
2023-01-29T16:31:11.515Z,101398.09
2023-01-29T16:33:43.736Z,101398.31
2023-01-29T16:36:17.809Z,101396.44
2023-01-29T16:38:48.707Z,101398.09
2023-01-29T16:41:28.429Z,101394.34
2023-01-29T16:43:58.597Z,101395.41
2023-01-29T16:46:32.506Z,101400.81
2023-01-29T16:49:02.223Z,101395.97
2023-01-29T16:51:31.096Z,101391.81
2023-01-29T16:54:07.558Z,101392.44
2023-01-29T16:56:36.091Z,101385.63
2023-01-29T16:59:06.603Z,101391.19
2023-01-29T17:01:36.866Z,101386.38
2023-01-29T17:04:11.402Z,101389.91
2023-01-29T17:06:42.557Z,101395.13
2023-01-29T17:09:22.079Z,101389.91
2023-01-29T17:11:55.955Z,101376.63
2023-01-29T17:14:24.970Z,101382.84
2023-01-29T17:16:56.071Z,101373.28
2023-01-29T17:19:25.810Z,101374.91
2023-01-29T17:21:53.699Z,101365.94
2023-01-29T17:24:21.315Z,101370.31
2023-01-29T17:26:49.585Z,101367.22
2023-01-29T17:29:20.368Z,101357.41
2023-01-29T17:31:48.104Z,101350.50
2023-01-29T17:34:18.623Z,101344.94
2023-01-29T17:36:47.721Z,101352.19
2023-01-29T17:39:18.874Z,101339.94
2023-01-29T17:41:48.349Z,101343.88
2023-01-29T17:44:16.324Z,101339.28
2023-01-29T17:46:44.008Z,101333.94
2023-01-29T17:49:22.508Z,101328.25
2023-01-29T17:51:51.797Z,101318.34
2023-01-29T17:54:19.788Z,101316.88
2023-01-29T17:56:47.714Z,101311.69
2023-01-29T17:59:16.749Z,101291.69
2023-01-29T18:01:44.964Z,101292.94
2023-01-29T18:04:12.793Z,101296.28
2023-01-29T18:06:42.101Z,101291.50
2023-01-29T18:09:14.659Z,101285.47
2023-01-29T18:11:42.404Z,101278.63
2023-01-29T18:14:14.055Z,101277.16
2023-01-29T18:16:43.319Z,101264.84
2023-01-29T18:19:15.227Z,101283.34
2023-01-29T18:21:42.907Z,101268.84
2023-01-29T18:24:11.965Z,101268.41
2023-01-29T18:26:39.640Z,101264.25
2023-01-29T18:29:07.415Z,101261.41
2023-01-29T18:31:35.080Z,101269.91
2023-01-29T18:34:02.785Z,101274.91
2023-01-29T18:36:30.553Z,101264.69
2023-01-29T18:38:58.719Z,101271.31
2023-01-29T18:41:27.722Z,101263.84
2023-01-29T18:43:55.343Z,101250.34
2023-01-29T18:46:24.213Z,101253.03
2023-01-29T18:48:51.975Z,101259.09
2023-01-29T18:51:19.666Z,101261.78
2023-01-29T18:53:50.904Z,101257.22
2023-01-29T18:56:19.473Z,101250.16
2023-01-29T18:58:52.302Z,101252.88
2023-01-29T19:01:23.584Z,101251.84
2023-01-29T19:03:52.017Z,101251.63
2023-01-29T19:06:19.799Z,101235.38
2023-01-29T19:08:47.874Z,101241.84
2023-01-29T19:11:15.551Z,101236.88
2023-01-29T19:13:43.394Z,101235.41
2023-01-29T19:16:14.017Z,101238.31
2023-01-29T19:18:41.751Z,101237.28
2023-01-29T19:21:11.589Z,101227.28
2023-01-29T19:23:39.435Z,101218.78
2023-01-29T19:26:07.327Z,101217.72
2023-01-29T19:28:34.949Z,101207.31
2023-01-29T19:31:02.731Z,101209.16
2023-01-29T19:33:32.006Z,101204.00
2023-01-29T19:36:00.409Z,101205.44
2023-01-29T19:38:28.721Z,101196.53
2023-01-29T19:40:56.387Z,101189.03
2023-01-29T19:43:24.136Z,101186.50
2023-01-29T19:45:59.089Z,101183.19
2023-01-29T19:48:27.117Z,101173.44
2023-01-29T19:50:57.855Z,101172.38
2023-01-29T19:53:26.432Z,101175.31
2023-01-29T19:56:01.012Z,101158.88
2023-01-29T19:58:29.541Z,101157.41
2023-01-29T20:00:58.187Z,101172.78
2023-01-29T20:03:26.787Z,101165.94
2023-01-29T20:05:56.281Z,101155.75
2023-01-29T20:08:24.782Z,101154.47
2023-01-29T20:10:52.533Z,101158.47
2023-01-29T20:13:20.231Z,101155.53
2023-01-29T20:15:49.808Z,101146.41
2023-01-29T20:18:18.557Z,101142.44
2023-01-29T20:20:47.874Z,101141.19
2023-01-29T20:23:31.730Z,101129.75
2023-01-29T20:26:05.328Z,101135.78
2023-01-29T20:28:32.993Z,101122.28
2023-01-29T20:31:00.876Z,101120.22
2023-01-29T20:33:29.052Z,101109.81
2023-01-29T20:35:57.554Z,101107.53
2023-01-29T20:38:31.523Z,101110.00
2023-01-29T20:41:04.245Z,101095.03
2023-01-29T20:43:32.058Z,101094.44
2023-01-29T20:46:00.214Z,101094.00
2023-01-29T20:48:27.992Z,101079.06
2023-01-29T20:50:55.671Z,101087.56
2023-01-29T20:53:23.342Z,101085.91
2023-01-29T20:55:52.573Z,101076.75
2023-01-29T20:58:20.544Z,101068.66
2023-01-29T21:00:48.358Z,101075.31
2023-01-29T21:03:16.095Z,101070.31
2023-01-29T21:05:43.822Z,101055.34
2023-01-29T21:08:11.931Z,101058.47
2023-01-29T21:10:40.996Z,101039.78
2023-01-29T21:13:10.951Z,101035.81
2023-01-29T21:15:38.706Z,101026.47
2023-01-29T21:18:07.459Z,101026.25
2023-01-29T21:20:59.905Z,101020.66
2023-01-29T21:23:27.803Z,101012.72
2023-01-29T21:26:01.066Z,101019.38
2023-01-29T21:28:30.178Z,101012.13
2023-01-29T21:31:04.265Z,101012.13
2023-01-29T21:33:32.122Z,101004.22
2023-01-29T21:36:00.405Z,100996.94
2023-01-29T21:38:28.154Z,100993.63
2023-01-29T21:41:00.680Z,100995.50
2023-01-29T21:43:28.752Z,100983.44
2023-01-29T21:45:57.271Z,100978.03
2023-01-29T21:48:25.068Z,100970.97
2023-01-29T21:50:53.693Z,100965.78
2023-01-29T21:53:21.541Z,100958.09
2023-01-29T21:55:49.421Z,100955.00
2023-01-29T21:58:17.054Z,100953.31
2023-01-29T22:00:48.497Z,100955.41
2023-01-29T22:03:16.508Z,100970.34
2023-01-29T22:05:44.166Z,100940.63
2023-01-29T22:08:11.901Z,100948.75
2023-01-29T22:10:39.549Z,100938.78
2023-01-29T22:13:07.267Z,100925.69
2023-01-29T22:15:35.412Z,100940.00
2023-01-29T22:18:04.510Z,100924.03
2023-01-29T22:20:32.174Z,100939.59
2023-01-29T22:23:00.427Z,100926.50
2023-01-29T22:25:28.627Z,100921.09
2023-01-29T22:27:56.264Z,100917.59
2023-01-29T22:30:24.076Z,100922.78
2023-01-29T22:32:52.046Z,100908.44
2023-01-29T22:35:21.078Z,100891.81
2023-01-29T22:37:48.714Z,100883.28
2023-01-29T22:40:16.651Z,100880.81
2023-01-29T22:42:44.549Z,100869.59
2023-01-29T22:45:12.690Z,100874.38
2023-01-29T22:47:40.471Z,100877.50
2023-01-29T22:50:09.081Z,100870.03
2023-01-29T22:52:39.377Z,100867.31
2023-01-29T22:55:09.291Z,100850.69
2023-01-29T22:57:37.405Z,100853.81
2023-01-29T23:00:08.325Z,100839.47
2023-01-29T23:02:36.030Z,100831.38
2023-01-29T23:05:03.675Z,100827.63
2023-01-29T23:07:31.455Z,100819.13
2023-01-29T23:10:00.439Z,100816.22
2023-01-29T23:12:28.111Z,100814.97
2023-01-29T23:14:55.789Z,100810.19
2023-01-29T23:17:23.507Z,100823.69
2023-01-29T23:19:51.120Z,100815.78
2023-01-29T23:22:18.781Z,100791.91
2023-01-29T23:24:46.474Z,100784.41
2023-01-29T23:27:14.558Z,100774.47
2023-01-29T23:29:42.516Z,100783.59
2023-01-29T23:32:10.292Z,100771.53
2023-01-29T23:34:37.992Z,100781.69
2023-01-29T23:37:05.769Z,100771.75
2023-01-29T23:39:33.424Z,100766.94
2023-01-29T23:42:01.443Z,100763.63
2023-01-29T23:44:30.632Z,100753.28
2023-01-29T23:46:59.350Z,100747.84
2023-01-29T23:49:27.007Z,100746.16
2023-01-29T23:51:54.653Z,100745.78
2023-01-29T23:54:22.326Z,100728.28
2023-01-29T23:56:50.121Z,100752.59
2023-01-29T23:59:18.027Z,100747.81
